sensor_id;sensor_type;location;lat;lon;timestamp;pressure;altitude;pressure_sealevel;temperature;humidity
35224;BME280;21367;51.930;8.112;2023-07-16T00:04:30;100277.31;;;20.25;84.65
35224;BME280;21367;51.930;8.112;2023-07-16T00:09:36;100288.56;;;20.38;84.78
35224;BME280;21367;51.930;8.112;2023-07-16T00:14:40;100284.44;;;19.82;87.81
35224;BME280;21367;51.930;8.112;2023-07-16T00:19:44;100276.63;;;19.67;88.04
35224;BME280;21367;51.930;8.112;2023-07-16T00:24:50;100267.91;;;19.84;87.63
35224;BME280;21367;51.930;8.112;2023-07-16T00:29:53;100278.25;;;20.04;86.71
35224;BME280;21367;51.930;8.112;2023-07-16T00:34:57;100289.66;;;19.79;87.36
35224;BME280;21367;51.930;8.112;2023-07-16T00:40:05;100297.47;;;19.60;89.44
35224;BME280;21367;51.930;8.112;2023-07-16T00:45:12;100300.94;;;19.55;89.53
35224;BME280;21367;51.930;8.112;2023-07-16T00:50:16;100306.19;;;19.70;88.28
35224;BME280;21367;51.930;8.112;2023-07-16T00:55:23;100306.16;;;19.58;88.87
35224;BME280;21367;51.930;8.112;2023-07-16T01:00:27;100311.38;;;19.59;88.95
35224;BME280;21367;51.930;8.112;2023-07-16T01:05:35;100328.78;;;19.53;89.72
35224;BME280;21367;51.930;8.112;2023-07-16T01:10:42;100324.41;;;19.19;92.83
35224;BME280;21367;51.930;8.112;2023-07-16T01:15:47;100323.53;;;19.17;92.38
35224;BME280;21367;51.930;8.112;2023-07-16T01:20:51;100312.25;;;19.20;92.72
35224;BME280;21367;51.930;8.112;2023-07-16T01:26:19;100305.31;;;19.14;92.99
35224;BME280;21367;51.930;8.112;2023-07-16T01:31:30;100314.88;;;19.12;93.68
35224;BME280;21367;51.930;8.112;2023-07-16T01:36:36;100314.00;;;18.97;95.20
35224;BME280;21367;51.930;8.112;2023-07-16T01:41:40;100309.63;;;18.99;94.75
35224;BME280;21367;51.930;8.112;2023-07-16T01:46:59;100308.78;;;18.93;94.59
35224;BME280;21367;51.930;8.112;2023-07-16T01:52:07;100313.13;;;18.96;95.22
35224;BME280;21367;51.930;8.112;2023-07-16T01:57:11;100324.38;;;18.89;95.92
35224;BME280;21367;51.930;8.112;2023-07-16T02:02:17;100323.38;;;18.52;98.01
35224;BME280;21367;51.930;8.112;2023-07-16T02:07:21;100329.47;;;18.64;97.71
35224;BME280;21367;51.930;8.112;2023-07-16T02:12:25;100343.38;;;18.66;98.85
35224;BME280;21367;51.930;8.112;2023-07-16T02:17:31;100324.25;;;18.50;100.00
35224;BME280;21367;51.930;8.112;2023-07-16T02:22:35;100341.53;;;18.38;100.00
35224;BME280;21367;51.930;8.112;2023-07-16T02:27:39;100349.41;;;18.47;100.00
35224;BME280;21367;51.930;8.112;2023-07-16T02:32:45;100358.94;;;18.46;100.00
35224;BME280;21367;51.930;8.112;2023-07-16T02:37:49;100366.72;;;18.42;100.00
35224;BME280;21367;51.930;8.112;2023-07-16T02:42:53;100368.50;;;18.50;100.00
35224;BME280;21367;51.930;8.112;2023-07-16T02:47:59;100377.19;;;18.54;100.00
35224;BME280;21367;51.930;8.112;2023-07-16T02:53:04;100378.88;;;18.43;100.00
35224;BME280;21367;51.930;8.112;2023-07-16T02:58:08;100376.19;;;18.24;100.00
35224;BME280;21367;51.930;8.112;2023-07-16T03:03:14;100383.00;;;18.02;100.00
35224;BME280;21367;51.930;8.112;2023-07-16T03:08:17;100390.00;;;18.20;100.00
35224;BME280;21367;51.930;8.112;2023-07-16T03:13:21;100396.00;;;18.06;100.00
35224;BME280;21367;51.930;8.112;2023-07-16T03:18:30;100398.53;;;17.98;100.00
35224;BME280;21367;51.930;8.112;2023-07-16T03:23:34;100392.09;;;17.54;100.00
35224;BME280;21367;51.930;8.112;2023-07-16T03:28:38;100403.59;;;17.79;100.00
35224;BME280;21367;51.930;8.112;2023-07-16T03:33:47;100424.50;;;17.90;100.00
35224;BME280;21367;51.930;8.112;2023-07-16T03:38:51;100423.44;;;17.70;100.00
35224;BME280;21367;51.930;8.112;2023-07-16T03:43:55;100435.81;;;17.98;100.00
35224;BME280;21367;51.930;8.112;2023-07-16T03:49:01;100434.91;;;17.92;100.00
35224;BME280;21367;51.930;8.112;2023-07-16T03:54:05;100437.63;;;18.06;100.00
35224;BME280;21367;51.930;8.112;2023-07-16T03:59:09;100441.16;;;18.15;100.00
35224;BME280;21367;51.930;8.112;2023-07-16T04:04:15;100454.97;;;18.05;100.00
35224;BME280;21367;51.930;8.112;2023-07-16T04:09:19;100450.69;;;18.15;100.00
35224;BME280;21367;51.930;8.112;2023-07-16T04:14:23;100457.56;;;18.08;100.00
35224;BME280;21367;51.930;8.112;2023-07-16T04:19:29;100467.00;;;17.95;100.00
35224;BME280;21367;51.930;8.112;2023-07-16T04:24:33;100471.19;;;17.79;100.00
35224;BME280;21367;51.930;8.112;2023-07-16T04:29:36;100469.81;;;18.23;100.00
35224;BME280;21367;51.930;8.112;2023-07-16T04:34:43;100480.25;;;18.26;100.00
35224;BME280;21367;51.930;8.112;2023-07-16T04:39:46;100481.88;;;18.13;100.00
35224;BME280;21367;51.930;8.112;2023-07-16T04:44:50;100479.31;;;18.15;100.00
35224;BME280;21367;51.930;8.112;2023-07-16T04:49:57;100480.25;;;18.24;100.00
35224;BME280;21367;51.930;8.112;2023-07-16T04:55:01;100486.31;;;18.26;99.39
35224;BME280;21367;51.930;8.112;2023-07-16T05:00:07;100496.75;;;18.30;99.09
35224;BME280;21367;51.930;8.112;2023-07-16T05:05:13;100503.78;;;18.43;96.44
35224;BME280;21367;51.930;8.112;2023-07-16T05:10:17;100505.53;;;18.44;95.01
35224;BME280;21367;51.930;8.112;2023-07-16T05:15:21;100509.94;;;18.56;92.56
35224;BME280;21367;51.930;8.112;2023-07-16T05:20:27;100514.25;;;18.52;91.36
35224;BME280;21367;51.930;8.112;2023-07-16T05:25:31;100521.22;;;18.56;86.48
35224;BME280;21367;51.930;8.112;2023-07-16T05:30:35;100530.75;;;18.57;84.88
35224;BME280;21367;51.930;8.112;2023-07-16T05:35:41;100544.72;;;18.68;80.39
35224;BME280;21367;51.930;8.112;2023-07-16T05:40:45;100540.34;;;18.64;77.97
35224;BME280;21367;51.930;8.112;2023-07-16T05:45:48;100530.84;;;18.68;76.14
35224;BME280;21367;51.930;8.112;2023-07-16T05:50:55;100544.81;;;18.78;76.44
35224;BME280;21367;51.930;8.112;2023-07-16T05:55:59;100555.97;;;18.64;74.74
35224;BME280;21367;51.930;8.112;2023-07-16T06:01:02;100546.53;;;18.80;74.20
35224;BME280;21367;51.930;8.112;2023-07-16T06:06:11;100563.09;;;18.88;73.76
35224;BME280;21367;51.930;8.112;2023-07-16T06:11:15;100561.31;;;18.81;73.26
35224;BME280;21367;51.930;8.112;2023-07-16T06:16:18;100551.81;;;18.92;72.63
35224;BME280;21367;51.930;8.112;2023-07-16T06:21:25;100550.06;;;18.88;71.96
35224;BME280;21367;51.930;8.112;2023-07-16T06:26:28;100571.84;;;19.01;73.05
35224;BME280;21367;51.930;8.112;2023-07-16T06:31:32;100571.06;;;19.21;71.08
35224;BME280;21367;51.930;8.112;2023-07-16T06:36:38;100598.06;;;19.32;70.22
35224;BME280;21367;51.930;8.112;2023-07-16T06:41:42;100599.66;;;19.08;69.21
35224;BME280;21367;51.930;8.112;2023-07-16T06:46:46;100598.00;;;19.15;69.34
35224;BME280;21367;51.930;8.112;2023-07-16T06:51:52;100612.91;;;19.47;68.60
35224;BME280;21367;51.930;8.112;2023-07-16T06:56:56;100618.09;;;19.40;67.99
35224;BME280;21367;51.930;8.112;2023-07-16T07:02:00;100601.56;;;19.37;67.83
35224;BME280;21367;51.930;8.112;2023-07-16T07:07:06;100605.13;;;19.63;68.24
35224;BME280;21367;51.930;8.112;2023-07-16T07:12:10;100600.75;;;19.55;67.42
35224;BME280;21367;51.930;8.112;2023-07-16T07:17:13;100608.59;;;19.59;66.62
35224;BME280;21367;51.930;8.112;2023-07-16T07:22:20;100612.16;;;19.80;66.92
35224;BME280;21367;51.930;8.112;2023-07-16T07:27:23;100608.75;;;20.08;66.18
35224;BME280;21367;51.930;8.112;2023-07-16T07:32:29;100620.84;;;19.79;65.17
35224;BME280;21367;51.930;8.112;2023-07-16T07:37:35;100618.31;;;20.08;63.93
35224;BME280;21367;51.930;8.112;2023-07-16T07:42:39;100627.06;;;20.31;64.10
35224;BME280;21367;51.930;8.112;2023-07-16T07:47:43;100622.69;;;20.32;64.23
35224;BME280;21367;51.930;8.112;2023-07-16T07:52:52;100625.28;;;20.20;63.07
35224;BME280;21367;51.930;8.112;2023-07-16T07:57:56;100632.25;;;20.24;62.98
35224;BME280;21367;51.930;8.112;2023-07-16T08:02:59;100626.16;;;20.14;64.09
35224;BME280;21367;51.930;8.112;2023-07-16T08:08:06;100623.56;;;20.48;62.66
35224;BME280;21367;51.930;8.112;2023-07-16T08:13:09;100634.88;;;20.25;63.04
35224;BME280;21367;51.930;8.112;2023-07-16T08:18:13;100635.78;;;20.75;61.41
35224;BME280;21367;51.930;8.112;2023-07-16T08:23:19;100633.09;;;21.15;60.01
35224;BME280;21367;51.930;8.112;2023-07-16T08:28:23;100637.44;;;21.22;59.88
35224;BME280;21367;51.930;8.112;2023-07-16T08:33:28;100630.38;;;21.62;59.64
35224;BME280;21367;51.930;8.112;2023-07-16T08:38:34;100647.72;;;21.77;58.11
35224;BME280;21367;51.930;8.112;2023-07-16T08:43:38;100653.63;;;22.21;56.56
35224;BME280;21367;51.930;8.112;2023-07-16T08:48:44;100658.06;;;22.03;55.99
35224;BME280;21367;51.930;8.112;2023-07-16T08:53:51;100659.75;;;22.12;56.77
35224;BME280;21367;51.930;8.112;2023-07-16T08:58:55;100666.69;;;22.21;56.67
35224;BME280;21367;51.930;8.112;2023-07-16T09:03:59;100655.13;;;22.54;54.86
35224;BME280;21367;51.930;8.112;2023-07-16T09:09:05;100667.59;;;23.24;54.54
35224;BME280;21367;51.930;8.112;2023-07-16T09:14:09;100666.63;;;22.34;55.93
35224;BME280;21367;51.930;8.112;2023-07-16T09:19:12;100669.47;;;21.91;55.88
35224;BME280;21367;51.930;8.112;2023-07-16T09:24:21;100668.53;;;22.06;55.75
35224;BME280;21367;51.930;8.112;2023-07-16T09:29:25;100671.97;;;22.10;56.47
35224;BME280;21367;51.930;8.112;2023-07-16T09:34:30;100681.78;;;21.65;56.44
35224;BME280;21367;51.930;8.112;2023-07-16T09:39:37;100684.06;;;22.34;54.97
35224;BME280;21367;51.930;8.112;2023-07-16T09:44:41;100689.59;;;21.74;57.20
35224;BME280;21367;51.930;8.112;2023-07-16T09:49:45;100692.22;;;21.79;55.94
35224;BME280;21367;51.930;8.112;2023-07-16T09:54:52;100677.81;;;23.50;52.48
35224;BME280;21367;51.930;8.112;2023-07-16T10:00:00;100684.00;;;24.13;51.38
35224;BME280;21367;51.930;8.112;2023-07-16T10:05:14;100693.81;;;24.63;50.23
35224;BME280;21367;51.930;8.112;2023-07-16T10:10:21;100696.97;;;24.85;49.42
35224;BME280;21367;51.930;8.112;2023-07-16T10:15:25;100693.78;;;24.65;48.92
35224;BME280;21367;51.930;8.112;2023-07-16T10:20:31;100699.75;;;24.75;50.07
35224;BME280;21367;51.930;8.112;2023-07-16T10:25:39;100715.09;;;24.46;49.29
35224;BME280;21367;51.930;8.112;2023-07-16T10:30:43;100700.72;;;24.69;50.06
35224;BME280;21367;51.930;8.112;2023-07-16T10:35:47;100706.53;;;25.39;50.31
35224;BME280;21367;51.930;8.112;2023-07-16T10:40:54;100699.50;;;26.64;46.93
35224;BME280;21367;51.930;8.112;2023-07-16T10:45:59;100714.97;;;25.56;46.90
35224;BME280;21367;51.930;8.112;2023-07-16T10:51:03;100714.97;;;25.08;47.70
35224;BME280;21367;51.930;8.112;2023-07-16T10:56:09;100714.25;;;25.93;45.47
35224;BME280;21367;51.930;8.112;2023-07-16T11:01:14;100705.63;;;25.42;47.63
35224;BME280;21367;51.930;8.112;2023-07-16T11:06:18;100721.63;;;25.29;47.98
35224;BME280;21367;51.930;8.112;2023-07-16T11:11:31;100717.88;;;25.88;46.76
35224;BME280;21367;51.930;8.112;2023-07-16T11:16:35;100712.28;;;27.15;44.54
35224;BME280;21367;51.930;8.112;2023-07-16T11:21:39;100716.56;;;26.07;46.37
35224;BME280;21367;51.930;8.112;2023-07-16T11:26:52;100718.63;;;25.48;48.06
35224;BME280;21367;51.930;8.112;2023-07-16T11:31:57;100731.69;;;25.99;47.18
35224;BME280;21367;51.930;8.112;2023-07-16T11:37:08;100730.81;;;24.50;48.79
35224;BME280;21367;51.930;8.112;2023-07-16T11:42:17;100723.25;;;25.35;48.41
35224;BME280;21367;51.930;8.112;2023-07-16T11:47:21;100739.47;;;25.10;48.04
35224;BME280;21367;51.930;8.112;2023-07-16T11:52:27;100756.97;;;25.14;47.69
35224;BME280;21367;51.930;8.112;2023-07-16T11:57:34;100729.16;;;24.98;48.07
35224;BME280;21367;51.930;8.112;2023-07-16T12:02:38;100732.28;;;25.23;47.43
35224;BME280;21367;51.930;8.112;2023-07-16T12:07:42;100734.47;;;26.33;45.09
35224;BME280;21367;51.930;8.112;2023-07-16T12:12:48;100734.06;;;26.11;46.47
35224;BME280;21367;51.930;8.112;2023-07-16T12:17:51;100731.97;;;25.85;46.40
35224;BME280;21367;51.930;8.112;2023-07-16T12:22:55;100737.69;;;26.05;47.74
35224;BME280;21367;51.930;8.112;2023-07-16T12:28:02;100734.09;;;27.21;45.30
35224;BME280;21367;51.930;8.112;2023-07-16T12:33:06;100730.84;;;27.44;43.89
35224;BME280;21367;51.930;8.112;2023-07-16T12:38:10;100733.63;;;28.02;44.00
35224;BME280;21367;51.930;8.112;2023-07-16T12:43:16;100745.88;;;27.08;44.96
35224;BME280;21367;51.930;8.112;2023-07-16T12:48:20;100768.91;;;26.64;45.84
35224;BME280;21367;51.930;8.112;2023-07-16T12:53:24;100750.91;;;26.82;45.12
35224;BME280;21367;51.930;8.112;2023-07-16T12:58:30;100772.63;;;26.93;46.65
35224;BME280;21367;51.930;8.112;2023-07-16T13:03:34;100774.41;;;25.20;47.87
35224;BME280;21367;51.930;8.112;2023-07-16T13:08:38;100782.53;;;25.03;48.19
35224;BME280;21367;51.930;8.112;2023-07-16T13:13:44;100770.03;;;24.62;48.51
35224;BME280;21367;51.930;8.112;2023-07-16T13:18:48;100775.56;;;25.02;48.46
35224;BME280;21367;51.930;8.112;2023-07-16T13:23:51;100769.75;;;25.84;47.40
35224;BME280;21367;51.930;8.112;2023-07-16T13:28:58;100782.16;;;25.29;49.32
35224;BME280;21367;51.930;8.112;2023-07-16T13:34:01;100774.69;;;25.54;47.88
35224;BME280;21367;51.930;8.112;2023-07-16T13:39:05;100779.97;;;25.00;48.61
35224;BME280;21367;51.930;8.112;2023-07-16T13:44:11;100776.16;;;25.21;49.56
35224;BME280;21367;51.930;8.112;2023-07-16T13:49:15;100774.56;;;25.60;48.67
35224;BME280;21367;51.930;8.112;2023-07-16T13:54:18;100771.63;;;26.98;47.25
35224;BME280;21367;51.930;8.112;2023-07-16T13:59:25;100771.00;;;26.87;46.54
35224;BME280;21367;51.930;8.112;2023-07-16T14:04:29;100776.13;;;26.93;46.67
35224;BME280;21367;51.930;8.112;2023-07-16T14:09:32;100781.13;;;27.04;45.53
35224;BME280;21367;51.930;8.112;2023-07-16T14:14:39;100786.09;;;26.81;46.90
35224;BME280;21367;51.930;8.112;2023-07-16T14:19:42;100775.13;;;26.97;45.49
35224;BME280;21367;51.930;8.112;2023-07-16T14:24:46;100790.50;;;28.16;44.16
35224;BME280;21367;51.930;8.112;2023-07-16T14:29:54;100771.59;;;27.34;44.89
35224;BME280;21367;51.930;8.112;2023-07-16T14:34:57;100784.91;;;26.15;46.49
35224;BME280;21367;51.930;8.112;2023-07-16T14:40:01;100783.75;;;26.28;47.32
35224;BME280;21367;51.930;8.112;2023-07-16T14:45:09;100768.78;;;26.70;46.66
35224;BME280;21367;51.930;8.112;2023-07-16T14:50:13;100772.31;;;28.05;44.26
35224;BME280;21367;51.930;8.112;2023-07-16T14:55:17;100784.59;;;27.75;43.79
35224;BME280;21367;51.930;8.112;2023-07-16T15:00:23;100777.78;;;27.99;42.73
35224;BME280;21367;51.930;8.112;2023-07-16T15:05:27;100790.72;;;27.08;45.33
35224;BME280;21367;51.930;8.112;2023-07-16T15:10:31;100774.72;;;27.16;45.19
35224;BME280;21367;51.930;8.112;2023-07-16T15:15:38;100781.91;;;26.31;47.72
35224;BME280;21367;51.930;8.112;2023-07-16T15:20:41;100767.81;;;26.34;46.99
35224;BME280;21367;51.930;8.112;2023-07-16T15:25:45;100768.09;;;27.98;45.34
35224;BME280;21367;51.930;8.112;2023-07-16T15:30:51;100778.09;;;27.21;45.70
35224;BME280;21367;51.930;8.112;2023-07-16T15:35:55;100771.91;;;27.24;45.90
35224;BME280;21367;51.930;8.112;2023-07-16T15:40:59;100770.56;;;27.04;45.28
35224;BME280;21367;51.930;8.112;2023-07-16T15:46:05;100774.56;;;26.46;46.86
35224;BME280;21367;51.930;8.112;2023-07-16T15:51:09;100786.22;;;27.12;46.62
35224;BME280;21367;51.930;8.112;2023-07-16T15:56:13;100772.84;;;27.54;45.00
35224;BME280;21367;51.930;8.112;2023-07-16T16:01:19;100772.06;;;27.16;45.17
35224;BME280;21367;51.930;8.112;2023-07-16T16:06:23;100768.41;;;27.21;46.03
35224;BME280;21367;51.930;8.112;2023-07-16T16:11:27;100768.81;;;27.39;45.25
35224;BME280;21367;51.930;8.112;2023-07-16T16:16:33;100776.97;;;26.95;46.23
35224;BME280;21367;51.930;8.112;2023-07-16T16:21:37;100765.16;;;25.94;46.55
35224;BME280;21367;51.930;8.112;2023-07-16T16:26:41;100769.19;;;25.65;46.71
35224;BME280;21367;51.930;8.112;2023-07-16T16:31:47;100768.78;;;26.70;45.18
35224;BME280;21367;51.930;8.112;2023-07-16T16:36:51;100765.25;;;26.31;45.04
35224;BME280;21367;51.930;8.112;2023-07-16T16:41:55;100766.38;;;27.33;43.92
35224;BME280;21367;51.930;8.112;2023-07-16T16:47:02;100765.47;;;25.77;46.07
35224;BME280;21367;51.930;8.112;2023-07-16T16:52:06;100773.72;;;25.07;46.94
35224;BME280;21367;51.930;8.112;2023-07-16T16:57:10;100768.72;;;24.92;47.71
35224;BME280;21367;51.930;8.112;2023-07-16T17:02:16;100765.13;;;25.49;46.68
35224;BME280;21367;51.930;8.112;2023-07-16T17:07:20;100765.75;;;25.13;47.56
35224;BME280;21367;51.930;8.112;2023-07-16T17:12:24;100777.44;;;24.94;48.42
35224;BME280;21367;51.930;8.112;2023-07-16T17:17:30;100760.75;;;26.75;45.12
35224;BME280;21367;51.930;8.112;2023-07-16T17:22:34;100771.16;;;26.42;45.82
35224;BME280;21367;51.930;8.112;2023-07-16T17:27:38;100781.88;;;24.90;48.73
35224;BME280;21367;51.930;8.112;2023-07-16T17:32:44;100786.44;;;24.14;50.18
35224;BME280;21367;51.930;8.112;2023-07-16T17:37:48;100788.53;;;24.57;49.08
35224;BME280;21367;51.930;8.112;2023-07-16T17:42:53;100786.06;;;24.43;49.66
35224;BME280;21367;51.930;8.112;2023-07-16T17:47:59;100794.56;;;23.94;50.95
35224;BME280;21367;51.930;8.112;2023-07-16T17:53:03;100795.88;;;24.28;50.22
35224;BME280;21367;51.930;8.112;2023-07-16T17:58:07;100793.66;;;23.95;51.44
35224;BME280;21367;51.930;8.112;2023-07-16T18:03:13;100786.09;;;23.69;51.99
35224;BME280;21367;51.930;8.112;2023-07-16T18:08:17;100791.66;;;24.16;51.27
35224;BME280;21367;51.930;8.112;2023-07-16T18:13:22;100790.03;;;24.06;53.10
35224;BME280;21367;51.930;8.112;2023-07-16T18:18:28;100782.91;;;24.15;51.86
35224;BME280;21367;51.930;8.112;2023-07-16T18:23:33;100787.81;;;23.69;53.04
35224;BME280;21367;51.930;8.112;2023-07-16T18:28:37;100784.94;;;23.95;51.48
35224;BME280;21367;51.930;8.112;2023-07-16T18:33:43;100799.00;;;23.88;51.95
35224;BME280;21367;51.930;8.112;2023-07-16T18:38:47;100789.59;;;23.65;52.21
35224;BME280;21367;51.930;8.112;2023-07-16T18:43:51;100787.44;;;23.16;53.84
35224;BME280;21367;51.930;8.112;2023-07-16T18:48:57;100794.28;;;23.31;53.89
35224;BME280;21367;51.930;8.112;2023-07-16T18:54:01;100795.47;;;22.95;54.80
35224;BME280;21367;51.930;8.112;2023-07-16T18:59:04;100809.44;;;22.91;55.02
35224;BME280;21367;51.930;8.112;2023-07-16T19:04:11;100810.38;;;22.82;55.54
35224;BME280;21367;51.930;8.112;2023-07-16T19:09:15;100802.53;;;22.82;55.73
35224;BME280;21367;51.930;8.112;2023-07-16T19:14:18;100803.41;;;22.79;54.93
35224;BME280;21367;51.930;8.112;2023-07-16T19:19:25;100810.50;;;22.62;55.09
35224;BME280;21367;51.930;8.112;2023-07-16T19:24:29;100825.44;;;22.46;55.63
35224;BME280;21367;51.930;8.112;2023-07-16T19:29:34;100826.41;;;22.28;55.80
35224;BME280;21367;51.930;8.112;2023-07-16T19:34:40;100833.38;;;22.12;56.28
35224;BME280;21367;51.930;8.112;2023-07-16T19:39:46;100841.28;;;22.02;56.27
35224;BME280;21367;51.930;8.112;2023-07-16T19:44:50;100849.19;;;21.74;57.23
35224;BME280;21367;51.930;8.112;2023-07-16T19:49:56;100861.38;;;21.92;56.45
35224;BME280;21367;51.930;8.112;2023-07-16T19:55:00;100857.91;;;21.82;57.50
35224;BME280;21367;51.930;8.112;2023-07-16T20:00:05;100874.47;;;21.80;57.63
35224;BME280;21367;51.930;8.112;2023-07-16T20:05:17;100867.53;;;21.69;58.84
35224;BME280;21367;51.930;8.112;2023-07-16T20:10:21;100873.63;;;21.47;60.26
35224;BME280;21367;51.930;8.112;2023-07-16T20:15:25;100879.69;;;21.34;61.76
35224;BME280;21367;51.930;8.112;2023-07-16T20:20:31;100874.41;;;20.98;64.20
35224;BME280;21367;51.930;8.112;2023-07-16T20:25:36;100875.28;;;20.94;64.29
35224;BME280;21367;51.930;8.112;2023-07-16T20:30:40;100877.00;;;20.85;64.37
35224;BME280;21367;51.930;8.112;2023-07-16T20:35:47;100870.88;;;20.73;64.85
35224;BME280;21367;51.930;8.112;2023-07-16T20:40:51;100864.78;;;20.74;64.92
35224;BME280;21367;51.930;8.112;2023-07-16T20:45:55;100876.81;;;20.46;65.36
35224;BME280;21367;51.930;8.112;2023-07-16T20:51:01;100877.78;;;20.54;66.18
35224;BME280;21367;51.930;8.112;2023-07-16T20:56:06;100862.84;;;20.33;67.18
35224;BME280;21367;51.930;8.112;2023-07-16T21:01:11;100865.41;;;20.23;67.61
35224;BME280;21367;51.930;8.112;2023-07-16T21:06:18;100873.16;;;20.07;69.59
35224;BME280;21367;51.930;8.112;2023-07-16T21:11:22;100863.72;;;20.28;70.43
35224;BME280;21367;51.930;8.112;2023-07-16T21:16:26;100873.28;;;20.30;69.18
35224;BME280;21367;51.930;8.112;2023-07-16T21:21:32;100870.66;;;20.30;68.10
35224;BME280;21367;51.930;8.112;2023-07-16T21:26:36;100874.13;;;20.25;67.54
35224;BME280;21367;51.930;8.112;2023-07-16T21:31:39;100879.41;;;20.37;67.46
35224;BME280;21367;51.930;8.112;2023-07-16T21:36:46;100886.31;;;20.21;67.46
35224;BME280;21367;51.930;8.112;2023-07-16T21:41:49;100881.84;;;20.08;68.33
35224;BME280;21367;51.930;8.112;2023-07-16T21:46:53;100892.34;;;20.13;69.51
35224;BME280;21367;51.930;8.112;2023-07-16T21:51:59;100892.28;;;20.03;69.89
35224;BME280;21367;51.930;8.112;2023-07-16T21:57:06;100892.19;;;19.88;69.85
35224;BME280;21367;51.930;8.112;2023-07-16T22:02:10;100894.72;;;19.80;69.94
35224;BME280;21367;51.930;8.112;2023-07-16T22:07:16;100898.25;;;19.88;69.62
35224;BME280;21367;51.930;8.112;2023-07-16T22:12:20;100890.38;;;19.78;70.69
35224;BME280;21367;51.930;8.112;2023-07-16T22:17:24;100896.47;;;19.80;70.78
35224;BME280;21367;51.930;8.112;2023-07-16T22:22:30;100893.81;;;19.74;70.57
35224;BME280;21367;51.930;8.112;2023-07-16T22:27:34;100906.84;;;19.74;70.88
35224;BME280;21367;51.930;8.112;2023-07-16T22:32:38;100929.06;;;19.35;72.60
35224;BME280;21367;51.930;8.112;2023-07-16T22:37:44;100922.97;;;19.33;75.49
35224;BME280;21367;51.930;8.112;2023-07-16T22:42:48;100912.38;;;19.17;79.41
35224;BME280;21367;51.930;8.112;2023-07-16T22:47:51;100902.84;;;19.15;81.29
35224;BME280;21367;51.930;8.112;2023-07-16T22:52:58;100900.06;;;19.01;84.01
35224;BME280;21367;51.930;8.112;2023-07-16T22:58:03;100903.44;;;18.91;87.20
35224;BME280;21367;51.930;8.112;2023-07-16T23:03:07;100898.25;;;18.94;91.02
35224;BME280;21367;51.930;8.112;2023-07-16T23:08:13;100894.69;;;18.86;89.16
35224;BME280;21367;51.930;8.112;2023-07-16T23:13:17;100900.72;;;18.83;91.88
35224;BME280;21367;51.930;8.112;2023-07-16T23:18:20;100890.28;;;18.79;93.27
35224;BME280;21367;51.930;8.112;2023-07-16T23:23:27;100894.50;;;18.72;93.96
35224;BME280;21367;51.930;8.112;2023-07-16T23:28:34;100889.16;;;18.60;95.14
35224;BME280;21367;51.930;8.112;2023-07-16T23:33:38;100884.78;;;18.56;94.15
35224;BME280;21367;51.930;8.112;2023-07-16T23:38:44;100882.13;;;18.53;94.00
35224;BME280;21367;51.930;8.112;2023-07-16T23:43:48;100889.91;;;18.49;95.27
35224;BME280;21367;51.930;8.112;2023-07-16T23:48:52;100893.22;;;18.38;95.81
35224;BME280;21367;51.930;8.112;2023-07-16T23:53:58;100894.91;;;18.36;96.00
35224;BME280;21367;51.930;8.112;2023-07-16T23:59:02;100891.34;;;18.27;96.85
